Observations at @ca for Latest


KACV 231253Z AUTO 08003KT 10SM FEW060 08/08 A3014 RMK AO2 RAE1154B12E39 SLP212
 P0003 T00830078=
KAPC 231254Z AUTO 00000KT 10SM FEW010 OVC018 12/11 A3013 RMK AO2 SLP194
 T01170106=
KAVX 231251Z AUTO 28008KT 9SM BKN002 09/09 A3014 RMK AO2 SLP206 T00940094 $=
KAVX 231306Z AUTO 27007KT 3/4SM BR VV002 09/09 A3014 RMK AO2 T00940094 $=
KBAB 231258Z AUTO 11006KT 8SM -RA OVC043 11/10 A3011 RMK AO2 SLP199 P0008
 T01060100 $=
KBAB 231144Z AUTO 17003KT 3SM RA BR FEW002 FEW011 OVC036 11/10 A3012 RMK AO2
 SLP203 $=
KBFL 231254Z 05004KT 10SM CLR 09/06 A3011 RMK AO2 SLP194 T00940056=
KBIH 231256Z AUTO 27005KT 10SM OVC095 08/02 A3002 RMK AO2 SLP141 T00780017=
KBLH 231252Z AUTO 00000KT 10SM CLR 10/01 A3005 RMK AO2 SLP172 T01000006=
KBLU 231152Z AUTO 14004KT 1/2SM SN FG VV004 00/M01 A3008 RMK AO2 SLP194 P0007
 60037 70070 T00001011 10011 20000 56008 TSNO=
KBUR 231253Z 10005KT 10SM OVC016 12/09 A3012 RMK AO2 SLP192 T01220089=
KBYS 231255Z AUTO 18002KT 10SM BKN200 09/00 A3008 RMK AO2 SLP188 WND DATA ESTMD
 T00870002=
KCCR 231253Z AUTO 16005KT 10SM -RA FEW048 BKN060 OVC085 12/10 A3013 RMK AO2
 RAB47 SLP188 P0000 T01220100=
KCEC 231256Z AUTO 00000KT 10SM SCT045 BKN060 08/07 A3015 RMK AO2 SLP210
 T00780072=
KCIC 231255Z AUTO 23003KT 10SM OVC075 10/09 A3012 RMK AO1 P0003=
KCIC 231315Z AUTO 25004KT 10SM BKN065 OVC070 10/09 A3012 RMK AO1=
KCMA 231255Z AUTO 06004KT 10SM OVC028 12/08 A3013 RMK AO2 SLP211 T01220083 TSNO=
KCMA 231318Z AUTO 07003KT 10SM OVC030 12/08 A3013 RMK AO2 T01220083 TSNO=
KCNO 231253Z AUTO 00000KT 9SM FEW023 07/07 A3016 RMK AO2 SLP210 T00720067=
KCNO 231315Z AUTO 00000KT 9SM BKN023 07/07 A3016 RMK AO2 T00670067=
KCQT 231247Z AUTO 12003KT 10SM SCT014 OVC021 14/09 A3013 RMK AO2 SLP203
 T01390094=
KCRQ 231253Z AUTO 00000KT 10SM CLR 11/09 A3013 RMK AO2 SLP204 T01110094=
KCZZ 231252Z AUTO 03004KT 04/03 A3009 RMK AO1 SLP177 T00440028=
KDAG 231250Z AUTO 00000KT 10SM CLR 09/04 A3008 RMK AO2 SLP174 T00890039=
KEDW 231158Z AUTO 23011KT 10SM CLR 09/05 A3006 RMK AO2 SLP173 T00870045 10097
 20073 57008=
KEED 231256Z AUTO 33003KT 10SM CLR 12/03 A3006 RMK AO2 SLP161 T01170033=
KFAT 231253Z 33007KT 10SM SCT060 BKN080 OVC110 12/08 A3012 RMK AO2 SLP198
 T01220083=
KFCH 231255Z AUTO 34004KT 10SM 12/09 A3013 RMK A01=
KFCH 231315Z AUTO 36004KT 10SM 12/10 A3012 RMK A01=
KFOT 231255Z AUTO 15005KT 1 1/2SM OVC003 05/05 A3015 RMK AO1=
KFOT 231315Z AUTO 14005KT 3SM OVC004 05/05 A3015 RMK AO1=
KFUL 231253Z AUTO 09004KT 10SM OVC022 12/08 A3013 RMK AO2 SLP203 T01220083=
KHHR 231253Z 14003KT 10SM SCT018 BKN023 14/10 A3014 RMK AO2 SLP205 T01390100=
KHJO 231253Z AUTO 35003KT 10SM BKN070 OVC110 12/10 A3012 RMK AO2 SLP201
 T01220100=
KHWD 231254Z AUTO 00000KT 10SM FEW020 BKN025 OVC047 17/11 A3013 RMK AO2 SLP212
 T01720111=
KIPL 231253Z AUTO 27005KT 10SM CLR 11/05 A3005 RMK AO2 SLP175 T01060050=
KIZA 231255Z AUTO 00000KT 10SM CLR 07/06 A3015 RMK AO2=
KIZA 231315Z AUTO 00000KT 10SM SCT080 07/06 A3015 RMK AO2=
KLAX 231253Z 00000KT 10SM BKN018 14/10 A3013 RMK AO2 SLP202 T01390100=
KLGB 231253Z AUTO 00000KT 9SM FEW019 OVC026 13/10 A3014 RMK AO2 SLP207
 T01330100=
KLVK 231253Z AUTO 00000KT 10SM OVC095 11/09 A3012 RMK AO2 RAE21 SLP200 P0000
 T01060094=
KMAE 231253Z AUTO 35005KT 10SM BKN075 OVC095 13/10 A3012 RMK AO2 RAE11B35E46
 SLP198 P0000 T01280100=
KMCC 231255Z AUTO 10004KT 3SM -RA BKN030 BKN042 OVC055 11/11 A3015 RMK AO2=
KMCC 231315Z AUTO 09010KT 4SM -RA FEW030 SCT036 BKN041 11/11 A3014 RMK AO2=
KMCE 231253Z AUTO 04005KT 7SM -RA FEW022 BKN031 OVC048 11/10 A3013 RMK AO2
 RAB17 SLP201 P0004 T01110100=
KMCE 231318Z AUTO 00000KT 6SM -RA BR BKN023 OVC031 11/11 A3013 RMK AO2 P0003
 T01110106=
KMER 231255Z AUTO 00000KT 4SM FEW020 BKN028 OVC035 11/11 A3013 RMK AO1=
KMER 231315Z AUTO 00000KT 2 1/2SM SCT018 OVC028 11/11 A3014 RMK AO1=
KMER 231255Z AUTO 00000KT 4SM FEW020 BKN028 OVC035 11/11 A3013 RMK AO1=
KMER 231315Z AUTO 00000KT 2 1/2SM SCT018 OVC028 11/11 A3014 RMK AO1=
KMHR 231245Z 00000KT 6SM -RA FEW030 BKN038 OVC050 10/09 A3013=
KMHS 231256Z AUTO 00000KT 10SM OVC005 03/02 A3007 RMK AO2 CIG 003V008 SLP210
 T00280017=
KMHV 231240Z AUTO 25007KT 10SM CLR 08/M02 A3007 RMK A01=
KMHV 231300Z AUTO 25007KT 10SM CLR 07/M02 A3007 RMK A01=
KMMH 231255Z AUTO 00000KT 10SM SCT039 SCT046 OVC050 00/M02 A3006 RMK AO2
 T00021023=
KMMH 231315Z AUTO 00000KT 10SM OVC050 00/M03 A3005 RMK AO2 T00021026=
KMOD 231253Z AUTO 00000KT 5SM RA BR SCT005 BKN018 OVC025 12/11 A3013 RMK AO2
 SLP204 P0011 T01170106=
KMOD 231301Z AUTO 30010KT 1 3/4SM +RA BR SCT005 BKN010 OVC027 11/09 A3014 RMK
 AO2 P0012 T01060094=
KMOD 231309Z AUTO 35004KT 1 1/2SM +RA BR FEW005 BKN016 OVC049 11/09 A3014 RMK
 AO2 P0023 T01060089=
KMOD 231312Z AUTO 34004KT 2SM RA BR FEW005 BKN040 OVC049 11/09 A3014 RMK AO2
 P0024 T01060089=
KMOD 231320Z AUTO 35003KT 5SM RA BR FEW005 BKN045 OVC055 11/08 A3014 RMK AO2
 P0025 T01060083=
KMOD 231253Z AUTO 00000KT 5SM RA BR SCT005 BKN018 OVC025 12/11 A3013 RMK AO2
 SLP204 P0011 T01170106=
KMRY 231254Z 00000KT 10SM -RA SCT021 BKN033 OVC050 12/10 A3014 RMK AO2 RAE01B43
 SLP219 P0000 T01170100=
KMRY 231316Z 00000KT 6SM -RA BR OVC019 12/10 A3015 RMK AO2 P0001 T01220100=
KMYF 231253Z 00000KT 10SM CLR 10/08 A3014 RMK AO2 SLP205 T01000078=
KMYV 231253Z AUTO 12012KT 10SM -RA OVC055 11/10 A3011 RMK AO2 SLP200 P0005
 T01060100=
KNFG 231255Z AUTO 00000KT 10SM FEW013 07/07 A3015 RMK AO2 SLP210 T00720072 $=
KNFG 231126Z AUTO 00000KT 10SM SCT013 07/07 A3015 RMK AO2 T00720072 $=
KNID 231256Z AUTO 22007KT 10SM CLR 09/02 A3005 RMK AO2 SLP171 T00940017 $=
KNJK 231256Z 00000KT 10SM BKN250 12/03 A3007 RMK SLP198 T01220028=
KNKX 231255Z 07004KT 10SM CLR 10/08 A3013 RMK AO2 SLP201 T01000078=
KNLC 231256Z AUTO 33007KT 10SM OVC090 12/10 A3012 RMK AO2 SLP200 T01170100=
KNRS 231256Z AUTO 10006KT 8SM CLR 10/08 A3015 RMK AO2 SLP209 T01000078=
KNSI 231256Z AUTO 28009KT 9SM FEW013 SCT020 12/09 A3015 RMK AO2 SLP206
 T01220094 PWINO PNO $=
KNSI 231317Z AUTO 28008KT 10SM FEW012 BKN021 13/09 A3015 RMK AO2 T01280094
 PWINO PNO $=
KNSI 231325Z AUTO 28009KT 9SM FEW014 FEW021 12/09 A3015 RMK AO2 T01220094 PWINO
 PNO $=
KNTD 231257Z AUTO 00000KT 10SM OVC010 09/07 A3014 RMK AO2 SLP207 T00940067 $=
KNTD 231304Z 03003KT 10SM FEW008 BKN010 09/07 A3014 RMK AO2 T00940072 $=
KNUC 231256Z AUTO SCT011 12/12 A3017 RMK AO2 SLP214 T01220117 $=
KNUQ 231256Z AUTO 00000KT 10SM OVC090 12/12 A3014 RMK AO2 RAE1158 SLP209 P0000
 T01170117 $=
KNXP 231256Z AUTO 36003KT 10SM CLR 09/03 A3014 RMK AO2 SLP183 T00940028=
KNZY 231252Z AUTO 00000KT 10SM BKN018 15/09 A3014 RMK AO2 SLP204 T01500089=
KNZY 231319Z AUTO 00000KT 10SM FEW018 15/09 A3015 RMK AO2 T01500089=
KO54 231255Z AUTO 00000KT 10SM OVC005 05/04 A3011 RMK AO1=
KO54 231315Z AUTO 00000KT 10SM OVC006 05/04 A3011 RMK AO1=
KOAK 231253Z 25004KT 10SM FEW018 BKN030 OVC060 13/11 A3014 RMK AO2 SLP205
 T01330111 $=
KOAK 231253Z 25004KT 10SM FEW018 BKN030 OVC060 13/11 A3014 RMK AO2 SLP205
 T01330111 /=
KONT 231253Z 00000KT 10SM FEW015 SCT037 SCT250 12/08 A3014 RMK AO2 SLP201
 T01170083=
KOVE 231253Z AUTO 06011KT 10SM -RA 11/09 A3012 RMK AO2 RAEMMB43 SLP201 P0005
 T01060089 $=
KOXR 231251Z AUTO 05003KT 10SM CLR 09/08 A3013 RMK AO2 SLP202 T00940078=
KPMD 231253Z 26004KT 10SM CLR 07/04 A3009 RMK AO2 SLP181 T00720044=
KPRB 231253Z AUTO 00000KT 10SM OVC044 10/09 A3012 RMK AO2 SLP199 T01000094 $=
KPRB 231253Z AUTO 00000KT 10SM OVC044 10/09 A3012 RMK AO2 SLP199 T01000094 /=
KPSP 231253Z 00000KT 10SM CLR 13/06 A3006 RMK AO2 SLP180 T01330056=
KPTV 231256Z AUTO 13004KT 10SM BKN110 08/07 A3012 RMK AO2 SLP213 T00830072=
KRAL 231253Z AUTO 14003KT 10SM CLR 08/07 A3014 RMK AO2 SLP197 T00830067=
KRBL 231254Z AUTO 00000KT 10SM OVC007 11/09 A3012 RMK AO2 RAE1156 SLP200 P0000
 T01060089=
KRDD 231253Z AUTO 35003KT 10SM FEW004 SCT026 OVC033 09/08 A3011 RMK AO2 SLP196
 T00940083 $=
KRDD 231253Z AUTO 35003KT 10SM FEW004 SCT026 OVC033 09/08 A3011 RMK AO2 SLP196
 T00940083 /=
KRDD 231312Z AUTO 35003KT 10SM BKN029 OVC036 09/08 A3011 RMK AO2 T00940083 $=
KRIV 231258Z AUTO 00000KT 10SM CLR 05/05 A3013 RMK AO2 SLP202 T00540054=
KRNM 231253Z AUTO 00000KT 6SM BR CLR 06/04 A3013 RMK AO2 SLP200 T00560044=
KRNM 231302Z AUTO 00000KT 1 1/2SM BR CLR 06/05 A3013 RMK AO2 T00560050=
KRNM 231306Z AUTO 00000KT 3/4SM BR CLR 06/05 A3013 RMK AO2 T00560050=
KRNM 231313Z AUTO 00000KT 1/2SM FG VV008 05/04 A3013 RMK AO2 T00500044=
KRNM 231320Z AUTO 00000KT 1/4SM FG VV008 06/04 A3014 RMK AO2 T00560044=
KRNM 231253Z AUTO 00000KT 6SM BR CLR 06/04 A3013 RMK AO2 SLP200 T00560044=
KSAC 231253Z 09008KT 8SM -RA OVC055 11/11 A3012 RMK AO2 SLP198 P0006 T01060106
 $=
KSAC 231253Z 09008KT 8SM -RA OVC055 11/11 A3012 RMK AO2 SLP198 P0006 T01060106
 /=
KSAN 231251Z 00000KT 10SM SCT017 BKN250 12/09 A3016 RMK AO2 SLP211 T01220089=
KSBA 231253Z AUTO 00000KT 10SM CLR 10/07 A3013 RMK AO2 SLP203 T01000072=
KSBD 231200Z AUTO 00000KT 10SM CLR 09/06 A3015 RMK AO2 T00920064=
KSBD 231220Z AUTO 10003KT 7SM CLR 09/06 A3014 RMK AO2 T00900061=
KSBD 231240Z AUTO 00000KT 7SM CLR 09/06 A3014 RMK AO2 T00900061=
KSBP 231256Z VRB03KT 10SM -RA FEW021 OVC032 11/08 A3013 RMK AO2 RAB56 SLP203
 P0000 T01110083=
KSBP 231310Z 00000KT 10SM BKN019 OVC032 11/08 A3013 RMK AO2 RAE06 P0000
 T01110083=
KSCK 231255Z AUTO 23005KT 6SM -RA BR FEW018 BKN048 OVC065 12/11 A3013 RMK AO2
 SLP203 P0007 T01220111=
KSDB 231253Z AUTO 24005KT 9SM CLR 04/02 A3011 RMK AO2 SLP182 T00390022=
KSDM 231253Z AUTO 14004KT 10SM CLR 07/06 A3014 RMK AO2 SLP205 T00720061=
KSEE 231255Z AUTO 00000KT 10SM CLR 09/08 A3014 RMK AO2=
KSEE 231315Z AUTO 00000KT 10SM CLR 09/08 A3015 RMK AO2=
KSFO 231256Z 27010KT 8SM SCT015 BKN030 OVC100 11/09 A3013 RMK AO2 SLP204
 T01110094=
KSIY 231253Z AUTO 00000KT 10SM OVC049 05/03 A3010 RMK AO2 SLP207 T00500033=
KSJC 231253Z 14005KT 10SM SCT060 OVC080 11/M02 A3013 RMK AO2 RAE34 SLP201 P0001
 T01111022=
KSLI 231258Z AUTO 08003KT 10SM OVC023 12/11 A3014 RMK AO2 SLP209 T01180107=
KSMF 231253Z 10007KT 9SM -RA BKN050 OVC070 11/10 A3010 RMK AO2 SLP193 P0004
 T01060100=
KSMO 231251Z AUTO 10003KT 10SM OVC020 13/11 A3013 RMK AO2 SLP203 T01330106=
KSMX 231251Z AUTO 12003KT 10SM BKN037 BKN070 OVC085 11/10 A3014 RMK AO2 SLP210
 T01110100=
KSNA 231253Z 10003KT 10SM BKN022 12/08 A3014 RMK AO2 SLP206 T01170083=
KSNS 231253Z AUTO 02003KT 10SM -RA OVC015 12/10 A3014 RMK AO2 SLP214 P0001
 T01220100=
KSQL 231255Z AUTO 28004KT 10SM SCT008 BKN020 OVC046 12/12 A3014 RMK AO2=
KSQL 231315Z AUTO 29004KT 10SM FEW010 SCT016 OVC026 12/12 A3015 RMK AO2=
KSQL 231320Z AUTO 29004KT 10SM FEW010 BKN026 OVC030 12/11 A3015 RMK AO2=
KSQL 231315Z AUTO 29004KT 10SM FEW010 SCT016 OVC026 12/12 A3015 RMK AO2=
KSTS 231253Z AUTO 00000KT 10SM FEW014 OVC020 10/09 A3012 RMK AO2 SLP193
 T01000094=
KSTS 231314Z AUTO 00000KT 10SM SCT023 09/09 A3012 RMK AO2 T00940089=
KSUU 231258Z AUTO 20003KT 9SM BKN004 10/09 A3013 RMK AO2 BKN V OVC CIG 003
 RWY03L SLP210 T01040093 $=
KSVE 231255Z AUTO 32006KT 6SM -RA OVC020 04/02 A3007 RMK AO2=
KSVE 231315Z AUTO 30005KT 5SM -RA OVC018 04/02 A3007 RMK AO2=
KTRK 231255Z AUTO 00000KT 1 1/2SM -SN BKN003 BKN018 OVC024 00/00 A3005 RMK AO2
 P0001=
KTRK 231310Z AUTO 00000KT 2SM -SN BKN003 OVC024 00/00 A3005 RMK AO2=
KTRM 231252Z AUTO 32007KT 10SM CLR 17/07 A3003 RMK AO2 SLP169 T01720072=
KTVL 231253Z AUTO 00000KT 2SM -SN BR BKN003 OVC022 01/00 A3003 RMK AO2 SLP161
 P0002 T00060000=
KTVL 231313Z AUTO 00000KT 3SM -SN BR SCT004 OVC027 01/00 A3003 RMK AO2 P0001
 T00060000=
KTVL 231323Z AUTO 00000KT 4SM -SN BR FEW004 OVC033 01/00 A3003 RMK AO2 P0001
 T00060000=
KUKI 231256Z AUTO 00000KT 10SM CLR 07/04 A3014 RMK AO2 SLP203 T00670044=
KVBG 231258Z AUTO 14006KT 8SM SCT005 SCT014 OVC029 10/10 A3014 RMK AO2 CIG
 014V029 CIG 003 RWY12 SLP210 $=
KVBG 231306Z AUTO 14006KT 6SM -RA BR BKN005 OVC029 10/10 A3015 RMK AO2 RAB06
 CIG 005V029 BKN V SCT SLP213 $=
KVCV 231245Z 00000KT 10SM SKC A3006=
KVIS 231256Z AUTO 11003KT 10SM BKN090 OVC110 11/08 A3012 RMK AO2 SLP207
 T01060083=
KVNY 231251Z 06004KT 10SM OVC014 12/09 A3012 RMK AO2 SLP195 T01170089=
KWJF 231256Z AUTO 23010KT 10SM CLR 09/06 A3009 RMK AO2 SLP190 T00890061=
KWVI 231253Z AUTO 00000KT 10SM OVC044 11/11 A3014 RMK AO2 RAE50 SLP206 P0002
 T01110106=